sensor_id;sensor_type;location;lat;lon;timestamp;pressure;altitude;pressure_sealevel;temperature
15062;BMP180;7630;50.306;8.566;2022-12-29T00:03:04;96939.00;;;10.00
15062;BMP180;7630;50.306;8.566;2022-12-29T00:07:06;96922.00;;;10.00
15062;BMP180;7630;50.306;8.566;2022-12-29T00:11:14;96899.00;;;9.90
15062;BMP180;7630;50.306;8.566;2022-12-29T00:15:15;96784.00;;;10.00
15062;BMP180;7630;50.306;8.566;2022-12-29T00:19:35;96919.00;;;10.00
15062;BMP180;7630;50.306;8.566;2022-12-29T00:23:54;96914.00;;;10.30
15062;BMP180;7630;50.306;8.566;2022-12-29T00:28:14;96919.00;;;10.20
15062;BMP180;7630;50.306;8.566;2022-12-29T00:32:34;96915.00;;;10.40
15062;BMP180;7630;50.306;8.566;2022-12-29T00:36:54;96911.00;;;10.00
15062;BMP180;7630;50.306;8.566;2022-12-29T00:40:55;96892.00;;;10.20
15062;BMP180;7630;50.306;8.566;2022-12-29T00:45:15;96922.00;;;10.10
15062;BMP180;7630;50.306;8.566;2022-12-29T00:49:18;96908.00;;;10.00
15062;BMP180;7630;50.306;8.566;2022-12-29T00:53:31;96798.00;;;10.30
15062;BMP180;7630;50.306;8.566;2022-12-29T00:57:32;96898.00;;;10.40
15062;BMP180;7630;50.306;8.566;2022-12-29T01:01:35;96898.00;;;10.00
15062;BMP180;7630;50.306;8.566;2022-12-29T01:05:37;96888.00;;;10.20
15062;BMP180;7630;50.306;8.566;2022-12-29T01:09:38;96880.00;;;10.30
15062;BMP180;7630;50.306;8.566;2022-12-29T01:13:57;96871.00;;;10.20
15062;BMP180;7630;50.306;8.566;2022-12-29T01:17:58;96852.00;;;10.10
15062;BMP180;7630;50.306;8.566;2022-12-29T01:21:59;96868.00;;;10.60
15062;BMP180;7630;50.306;8.566;2022-12-29T01:26:12;96863.00;;;10.20
15062;BMP180;7630;50.306;8.566;2022-12-29T01:30:14;96830.00;;;10.40
15062;BMP180;7630;50.306;8.566;2022-12-29T01:34:15;96847.00;;;10.30
15062;BMP180;7630;50.306;8.566;2022-12-29T01:38:16;96844.00;;;10.40
15062;BMP180;7630;50.306;8.566;2022-12-29T01:42:19;96853.00;;;10.10
15062;BMP180;7630;50.306;8.566;2022-12-29T01:46:31;96863.00;;;10.40
15062;BMP180;7630;50.306;8.566;2022-12-29T01:50:38;96861.00;;;10.20
15062;BMP180;7630;50.306;8.566;2022-12-29T01:54:45;96877.00;;;10.50
15062;BMP180;7630;50.306;8.566;2022-12-29T01:58:49;96870.00;;;10.40
15062;BMP180;7630;50.306;8.566;2022-12-29T02:02:52;96885.00;;;10.20
15062;BMP180;7630;50.306;8.566;2022-12-29T02:06:57;96888.00;;;10.20
15062;BMP180;7630;50.306;8.566;2022-12-29T02:11:00;96902.00;;;10.10
15062;BMP180;7630;50.306;8.566;2022-12-29T02:15:03;96895.00;;;10.00
15062;BMP180;7630;50.306;8.566;2022-12-29T02:37:12;96896.00;;;10.60
15062;BMP180;7630;50.306;8.566;2022-12-29T02:41:22;96876.00;;;10.20
15062;BMP180;7630;50.306;8.566;2022-12-29T02:53:48;96880.00;;;9.80
15062;BMP180;7630;50.306;8.566;2022-12-29T02:58:20;96882.00;;;9.80
15062;BMP180;7630;50.306;8.566;2022-12-29T03:06:58;96886.00;;;10.10
15062;BMP180;7630;50.306;8.566;2022-12-29T03:15:08;96882.00;;;10.40
15062;BMP180;7630;50.306;8.566;2022-12-29T03:19:35;96881.00;;;10.50
15062;BMP180;7630;50.306;8.566;2022-12-29T03:23:39;96879.00;;;10.30
15062;BMP180;7630;50.306;8.566;2022-12-29T03:27:44;96880.00;;;10.40
15062;BMP180;7630;50.306;8.566;2022-12-29T03:31:48;96884.00;;;10.40
15062;BMP180;7630;50.306;8.566;2022-12-29T03:35:52;96877.00;;;10.40
15062;BMP180;7630;50.306;8.566;2022-12-29T03:39:56;96870.00;;;10.60
15062;BMP180;7630;50.306;8.566;2022-12-29T03:43:57;96866.00;;;9.70
15062;BMP180;7630;50.306;8.566;2022-12-29T03:47:58;96849.00;;;10.40
15062;BMP180;7630;50.306;8.566;2022-12-29T03:51:59;96859.00;;;10.10
15062;BMP180;7630;50.306;8.566;2022-12-29T03:56:01;96836.00;;;10.10
15062;BMP180;7630;50.306;8.566;2022-12-29T04:00:04;96864.00;;;10.20
15062;BMP180;7630;50.306;8.566;2022-12-29T04:04:06;96873.00;;;10.40
15062;BMP180;7630;50.306;8.566;2022-12-29T04:08:07;96854.00;;;10.50
15062;BMP180;7630;50.306;8.566;2022-12-29T04:12:08;96832.00;;;10.80
15062;BMP180;7630;50.306;8.566;2022-12-29T04:16:09;96839.00;;;10.60
15062;BMP180;7630;50.306;8.566;2022-12-29T04:20:10;96856.00;;;10.50
15062;BMP180;7630;50.306;8.566;2022-12-29T04:24:29;96842.00;;;10.40
15062;BMP180;7630;50.306;8.566;2022-12-29T04:28:33;96852.00;;;10.70
15062;BMP180;7630;50.306;8.566;2022-12-29T04:32:34;96853.00;;;10.30
15062;BMP180;7630;50.306;8.566;2022-12-29T04:36:35;96849.00;;;10.70
15062;BMP180;7630;50.306;8.566;2022-12-29T04:40:42;96841.00;;;10.50
15062;BMP180;7630;50.306;8.566;2022-12-29T04:44:43;96849.00;;;10.10
15062;BMP180;7630;50.306;8.566;2022-12-29T04:48:46;96852.00;;;9.90
15062;BMP180;7630;50.306;8.566;2022-12-29T04:52:47;96847.00;;;9.90
15062;BMP180;7630;50.306;8.566;2022-12-29T04:56:48;96838.00;;;10.00
15062;BMP180;7630;50.306;8.566;2022-12-29T05:00:50;96844.00;;;10.10
15062;BMP180;7630;50.306;8.566;2022-12-29T05:04:51;96846.00;;;10.10
15062;BMP180;7630;50.306;8.566;2022-12-29T05:08:52;96840.00;;;10.40
15062;BMP180;7630;50.306;8.566;2022-12-29T05:12:53;96834.00;;;10.50
15062;BMP180;7630;50.306;8.566;2022-12-29T05:16:55;96831.00;;;10.40
15062;BMP180;7630;50.306;8.566;2022-12-29T05:20:56;96825.00;;;10.50
15062;BMP180;7630;50.306;8.566;2022-12-29T05:24:57;96831.00;;;10.20
15062;BMP180;7630;50.306;8.566;2022-12-29T05:28:58;96831.00;;;10.20
15062;BMP180;7630;50.306;8.566;2022-12-29T05:33:00;96848.00;;;10.40
15062;BMP180;7630;50.306;8.566;2022-12-29T05:37:01;96835.00;;;10.10
15062;BMP180;7630;50.306;8.566;2022-12-29T05:41:03;96836.00;;;10.60
15062;BMP180;7630;50.306;8.566;2022-12-29T05:45:06;96834.00;;;10.20
15062;BMP180;7630;50.306;8.566;2022-12-29T05:49:07;96822.00;;;10.20
15062;BMP180;7630;50.306;8.566;2022-12-29T05:53:09;96817.00;;;9.90
15062;BMP180;7630;50.306;8.566;2022-12-29T05:57:10;96849.00;;;10.30
15062;BMP180;7630;50.306;8.566;2022-12-29T06:01:12;96850.00;;;10.10
15062;BMP180;7630;50.306;8.566;2022-12-29T06:05:13;96844.00;;;10.20
15062;BMP180;7630;50.306;8.566;2022-12-29T06:09:14;96829.00;;;10.30
15062;BMP180;7630;50.306;8.566;2022-12-29T06:13:15;96831.00;;;10.40
15062;BMP180;7630;50.306;8.566;2022-12-29T06:17:19;96841.00;;;10.10
15062;BMP180;7630;50.306;8.566;2022-12-29T06:21:20;96832.00;;;10.30
15062;BMP180;7630;50.306;8.566;2022-12-29T06:25:21;96834.00;;;10.30
15062;BMP180;7630;50.306;8.566;2022-12-29T06:29:22;96840.00;;;10.50
15062;BMP180;7630;50.306;8.566;2022-12-29T06:33:23;96821.00;;;10.30
15062;BMP180;7630;50.306;8.566;2022-12-29T06:37:24;96830.00;;;10.30
15062;BMP180;7630;50.306;8.566;2022-12-29T06:41:26;96828.00;;;10.40
15062;BMP180;7630;50.306;8.566;2022-12-29T06:45:29;96831.00;;;10.60
15062;BMP180;7630;50.306;8.566;2022-12-29T06:49:30;96836.00;;;10.40
15062;BMP180;7630;50.306;8.566;2022-12-29T06:53:31;96836.00;;;10.10
15062;BMP180;7630;50.306;8.566;2022-12-29T06:57:32;96820.00;;;10.50
15062;BMP180;7630;50.306;8.566;2022-12-29T07:01:33;96816.00;;;10.10
15062;BMP180;7630;50.306;8.566;2022-12-29T07:05:35;96803.00;;;10.30
15062;BMP180;7630;50.306;8.566;2022-12-29T07:09:36;96806.00;;;10.00
15062;BMP180;7630;50.306;8.566;2022-12-29T07:13:37;96808.00;;;9.70
15062;BMP180;7630;50.306;8.566;2022-12-29T07:17:38;96804.00;;;9.60
15062;BMP180;7630;50.306;8.566;2022-12-29T07:21:40;96806.00;;;9.80
15062;BMP180;7630;50.306;8.566;2022-12-29T07:25:46;96793.00;;;10.20
15062;BMP180;7630;50.306;8.566;2022-12-29T07:29:47;96803.00;;;9.90
15062;BMP180;7630;50.306;8.566;2022-12-29T07:33:49;96813.00;;;10.00
15062;BMP180;7630;50.306;8.566;2022-12-29T07:37:50;96816.00;;;10.20
15062;BMP180;7630;50.306;8.566;2022-12-29T07:41:51;96797.00;;;10.20
15062;BMP180;7630;50.306;8.566;2022-12-29T07:45:52;96792.00;;;10.10
15062;BMP180;7630;50.306;8.566;2022-12-29T07:49:53;96806.00;;;10.50
15062;BMP180;7630;50.306;8.566;2022-12-29T07:53:54;96786.00;;;10.20
15062;BMP180;7630;50.306;8.566;2022-12-29T07:57:56;96808.00;;;10.20
15062;BMP180;7630;50.306;8.566;2022-12-29T08:01:57;96806.00;;;10.40
15062;BMP180;7630;50.306;8.566;2022-12-29T08:05:59;96809.00;;;10.30
15062;BMP180;7630;50.306;8.566;2022-12-29T08:10:01;96824.00;;;10.30
15062;BMP180;7630;50.306;8.566;2022-12-29T08:14:03;96834.00;;;10.40
15062;BMP180;7630;50.306;8.566;2022-12-29T08:18:04;96847.00;;;10.40
15062;BMP180;7630;50.306;8.566;2022-12-29T08:22:06;96829.00;;;10.50
15062;BMP180;7630;50.306;8.566;2022-12-29T08:26:07;96834.00;;;10.60
15062;BMP180;7630;50.306;8.566;2022-12-29T08:30:09;96819.00;;;10.30
15062;BMP180;7630;50.306;8.566;2022-12-29T08:34:11;96835.00;;;10.40
15062;BMP180;7630;50.306;8.566;2022-12-29T08:38:12;96821.00;;;10.70
15062;BMP180;7630;50.306;8.566;2022-12-29T08:42:13;96864.00;;;10.50
15062;BMP180;7630;50.306;8.566;2022-12-29T08:46:16;96829.00;;;10.90
15062;BMP180;7630;50.306;8.566;2022-12-29T08:50:18;96849.00;;;11.20
15062;BMP180;7630;50.306;8.566;2022-12-29T08:54:19;96852.00;;;10.90
15062;BMP180;7630;50.306;8.566;2022-12-29T08:58:22;96863.00;;;11.10
15062;BMP180;7630;50.306;8.566;2022-12-29T09:02:24;96880.00;;;10.90
15062;BMP180;7630;50.306;8.566;2022-12-29T09:06:25;96912.00;;;11.10
15062;BMP180;7630;50.306;8.566;2022-12-29T09:10:27;96922.00;;;11.20
15062;BMP180;7630;50.306;8.566;2022-12-29T09:14:28;96920.00;;;11.20
15062;BMP180;7630;50.306;8.566;2022-12-29T09:18:29;96924.00;;;10.50
15062;BMP180;7630;50.306;8.566;2022-12-29T09:22:31;96918.00;;;11.10
15062;BMP180;7630;50.306;8.566;2022-12-29T09:26:32;96924.00;;;10.80
15062;BMP180;7630;50.306;8.566;2022-12-29T09:30:33;96931.00;;;10.90
15062;BMP180;7630;50.306;8.566;2022-12-29T09:34:34;96919.00;;;10.70
15062;BMP180;7630;50.306;8.566;2022-12-29T09:38:35;96920.00;;;11.00
15062;BMP180;7630;50.306;8.566;2022-12-29T09:42:45;96927.00;;;11.20
15062;BMP180;7630;50.306;8.566;2022-12-29T09:46:49;96924.00;;;11.40
15062;BMP180;7630;50.306;8.566;2022-12-29T09:50:55;96933.00;;;11.50
15062;BMP180;7630;50.306;8.566;2022-12-29T09:55:00;96950.00;;;12.00
15062;BMP180;7630;50.306;8.566;2022-12-29T09:59:13;96942.00;;;11.40
15062;BMP180;7630;50.306;8.566;2022-12-29T10:03:19;96942.00;;;11.60
15062;BMP180;7630;50.306;8.566;2022-12-29T10:16:18;96947.00;;;11.00
15062;BMP180;7630;50.306;8.566;2022-12-29T10:20:31;96941.00;;;11.50
15062;BMP180;7630;50.306;8.566;2022-12-29T10:24:37;96915.00;;;11.60
15062;BMP180;7630;50.306;8.566;2022-12-29T10:28:58;96930.00;;;11.70
15062;BMP180;7630;50.306;8.566;2022-12-29T10:32:58;96932.00;;;11.50
15062;BMP180;7630;50.306;8.566;2022-12-29T10:37:13;96931.00;;;11.60
15062;BMP180;7630;50.306;8.566;2022-12-29T10:41:20;96935.00;;;11.50
15062;BMP180;7630;50.306;8.566;2022-12-29T10:45:24;96929.00;;;11.80
15062;BMP180;7630;50.306;8.566;2022-12-29T10:49:28;96929.00;;;11.90
15062;BMP180;7630;50.306;8.566;2022-12-29T10:53:40;96927.00;;;11.90
15062;BMP180;7630;50.306;8.566;2022-12-29T10:57:44;96931.00;;;11.90
15062;BMP180;7630;50.306;8.566;2022-12-29T11:06:25;96924.00;;;11.80
15062;BMP180;7630;50.306;8.566;2022-12-29T11:14:37;96927.00;;;11.80
15062;BMP180;7630;50.306;8.566;2022-12-29T11:18:40;96934.00;;;11.80
15062;BMP180;7630;50.306;8.566;2022-12-29T11:22:44;96940.00;;;12.60
15062;BMP180;7630;50.306;8.566;2022-12-29T11:26:46;96931.00;;;12.20
15062;BMP180;7630;50.306;8.566;2022-12-29T11:30:49;96951.00;;;11.60
15062;BMP180;7630;50.306;8.566;2022-12-29T11:34:52;96950.00;;;11.70
15062;BMP180;7630;50.306;8.566;2022-12-29T11:38:54;96950.00;;;12.20
15062;BMP180;7630;50.306;8.566;2022-12-29T11:43:03;96936.00;;;11.70
15062;BMP180;7630;50.306;8.566;2022-12-29T11:47:07;96949.00;;;11.90
15062;BMP180;7630;50.306;8.566;2022-12-29T11:51:11;96961.00;;;11.50
15062;BMP180;7630;50.306;8.566;2022-12-29T11:55:19;96956.00;;;11.60
15062;BMP180;7630;50.306;8.566;2022-12-29T12:03:33;96960.00;;;11.60
15062;BMP180;7630;50.306;8.566;2022-12-29T12:07:44;96967.00;;;11.70
15062;BMP180;7630;50.306;8.566;2022-12-29T12:11:49;96951.00;;;11.70
15062;BMP180;7630;50.306;8.566;2022-12-29T12:20:10;96970.00;;;11.60
15062;BMP180;7630;50.306;8.566;2022-12-29T12:24:33;96962.00;;;11.70
15062;BMP180;7630;50.306;8.566;2022-12-29T12:28:49;96975.00;;;11.60
15062;BMP180;7630;50.306;8.566;2022-12-29T12:33:22;96976.00;;;12.30
15062;BMP180;7630;50.306;8.566;2022-12-29T12:51:23;96971.00;;;12.50
15062;BMP180;7630;50.306;8.566;2022-12-29T13:03:08;96980.00;;;12.10
15062;BMP180;7630;50.306;8.566;2022-12-29T13:28:49;96990.00;;;12.40
15062;BMP180;7630;50.306;8.566;2022-12-29T13:32:59;96978.00;;;12.40
15062;BMP180;7630;50.306;8.566;2022-12-29T13:37:02;96977.00;;;12.40
15062;BMP180;7630;50.306;8.566;2022-12-29T13:41:08;96982.00;;;12.70
15062;BMP180;7630;50.306;8.566;2022-12-29T13:45:13;96979.00;;;13.50
15062;BMP180;7630;50.306;8.566;2022-12-29T13:49:17;96993.00;;;12.80
15062;BMP180;7630;50.306;8.566;2022-12-29T14:06:29;97010.00;;;13.20
15062;BMP180;7630;50.306;8.566;2022-12-29T14:10:36;97019.00;;;12.70
15062;BMP180;7630;50.306;8.566;2022-12-29T14:14:39;97017.00;;;13.50
15062;BMP180;7630;50.306;8.566;2022-12-29T14:18:43;97025.00;;;13.40
15062;BMP180;7630;50.306;8.566;2022-12-29T14:23:45;97037.00;;;13.40
15062;BMP180;7630;50.306;8.566;2022-12-29T14:35:41;97040.00;;;12.20
15062;BMP180;7630;50.306;8.566;2022-12-29T14:39:44;97042.00;;;12.80
15062;BMP180;7630;50.306;8.566;2022-12-29T14:44:18;97045.00;;;13.30
15062;BMP180;7630;50.306;8.566;2022-12-29T14:52:29;97045.00;;;13.10
15062;BMP180;7630;50.306;8.566;2022-12-29T14:56:32;97051.00;;;12.80
15062;BMP180;7630;50.306;8.566;2022-12-29T15:00:35;97055.00;;;12.70
15062;BMP180;7630;50.306;8.566;2022-12-29T15:04:36;97048.00;;;13.20
15062;BMP180;7630;50.306;8.566;2022-12-29T15:13:22;97044.00;;;13.70
15062;BMP180;7630;50.306;8.566;2022-12-29T15:17:30;97042.00;;;12.90
15062;BMP180;7630;50.306;8.566;2022-12-29T15:21:33;97054.00;;;12.70
15062;BMP180;7630;50.306;8.566;2022-12-29T15:25:35;97055.00;;;12.50
15062;BMP180;7630;50.306;8.566;2022-12-29T15:29:42;97061.00;;;12.20
15062;BMP180;7630;50.306;8.566;2022-12-29T15:33:46;97065.00;;;12.60
15062;BMP180;7630;50.306;8.566;2022-12-29T15:37:48;97060.00;;;11.70
15062;BMP180;7630;50.306;8.566;2022-12-29T15:41:53;97062.00;;;12.50
15062;BMP180;7630;50.306;8.566;2022-12-29T15:46:05;97072.00;;;11.50
15062;BMP180;7630;50.306;8.566;2022-12-29T15:54:19;97075.00;;;11.40
15062;BMP180;7630;50.306;8.566;2022-12-29T15:58:24;97089.00;;;11.10
15062;BMP180;7630;50.306;8.566;2022-12-29T16:02:25;97092.00;;;10.70
15062;BMP180;7630;50.306;8.566;2022-12-29T16:06:35;97100.00;;;11.30
15062;BMP180;7630;50.306;8.566;2022-12-29T16:10:39;97093.00;;;11.10
15062;BMP180;7630;50.306;8.566;2022-12-29T16:14:54;97100.00;;;11.30
15062;BMP180;7630;50.306;8.566;2022-12-29T16:18:56;97111.00;;;11.20
15062;BMP180;7630;50.306;8.566;2022-12-29T16:22:59;97109.00;;;11.10
15062;BMP180;7630;50.306;8.566;2022-12-29T16:27:22;97126.00;;;11.60
15062;BMP180;7630;50.306;8.566;2022-12-29T16:35:53;97129.00;;;11.40
15062;BMP180;7630;50.306;8.566;2022-12-29T16:39:54;97136.00;;;11.20
15062;BMP180;7630;50.306;8.566;2022-12-29T16:44:12;97139.00;;;11.20
15062;BMP180;7630;50.306;8.566;2022-12-29T16:48:20;97146.00;;;11.50
15062;BMP180;7630;50.306;8.566;2022-12-29T16:52:29;97145.00;;;12.80
15062;BMP180;7630;50.306;8.566;2022-12-29T16:56:32;97156.00;;;13.30
15062;BMP180;7630;50.306;8.566;2022-12-29T17:00:35;97158.00;;;13.50
15062;BMP180;7630;50.306;8.566;2022-12-29T17:04:37;97164.00;;;13.60
15062;BMP180;7630;50.306;8.566;2022-12-29T17:08:40;97167.00;;;13.10
15062;BMP180;7630;50.306;8.566;2022-12-29T17:12:44;97158.00;;;13.60
15062;BMP180;7630;50.306;8.566;2022-12-29T17:16:47;97166.00;;;12.50
15062;BMP180;7630;50.306;8.566;2022-12-29T17:20:49;97167.00;;;12.00
15062;BMP180;7630;50.306;8.566;2022-12-29T17:24:52;97166.00;;;11.30
15062;BMP180;7630;50.306;8.566;2022-12-29T17:28:53;97174.00;;;11.80
15062;BMP180;7630;50.306;8.566;2022-12-29T17:33:06;97178.00;;;11.50
15062;BMP180;7630;50.306;8.566;2022-12-29T17:37:28;97179.00;;;10.90
15062;BMP180;7630;50.306;8.566;2022-12-29T17:41:16;97171.00;;;11.00
15062;BMP180;7630;50.306;8.566;2022-12-29T17:45:20;97169.00;;;11.10
15062;BMP180;7630;50.306;8.566;2022-12-29T17:49:22;97175.00;;;11.50
15062;BMP180;7630;50.306;8.566;2022-12-29T17:53:25;97179.00;;;11.60
15062;BMP180;7630;50.306;8.566;2022-12-29T17:57:27;97177.00;;;11.00
15062;BMP180;7630;50.306;8.566;2022-12-29T18:01:28;97170.00;;;11.30
15062;BMP180;7630;50.306;8.566;2022-12-29T18:05:33;97172.00;;;11.20
15062;BMP180;7630;50.306;8.566;2022-12-29T18:09:34;97168.00;;;11.10
15062;BMP180;7630;50.306;8.566;2022-12-29T18:13:35;97170.00;;;10.80
15062;BMP180;7630;50.306;8.566;2022-12-29T18:17:38;97176.00;;;10.70
15062;BMP180;7630;50.306;8.566;2022-12-29T18:21:41;97176.00;;;10.80
15062;BMP180;7630;50.306;8.566;2022-12-29T18:25:55;97189.00;;;10.90
15062;BMP180;7630;50.306;8.566;2022-12-29T18:29:57;97180.00;;;11.10
15062;BMP180;7630;50.306;8.566;2022-12-29T18:34:00;97194.00;;;10.20
15062;BMP180;7630;50.306;8.566;2022-12-29T18:38:01;97191.00;;;9.90
15062;BMP180;7630;50.306;8.566;2022-12-29T18:42:03;97201.00;;;10.80
15062;BMP180;7630;50.306;8.566;2022-12-29T18:46:05;97208.00;;;9.90
15062;BMP180;7630;50.306;8.566;2022-12-29T18:50:06;97219.00;;;10.10
15062;BMP180;7630;50.306;8.566;2022-12-29T18:54:28;97209.00;;;10.30
15062;BMP180;7630;50.306;8.566;2022-12-29T18:58:30;97216.00;;;10.40
15062;BMP180;7630;50.306;8.566;2022-12-29T19:02:34;97227.00;;;10.40
15062;BMP180;7630;50.306;8.566;2022-12-29T19:06:35;97226.00;;;10.70
15062;BMP180;7630;50.306;8.566;2022-12-29T19:10:38;97222.00;;;11.30
15062;BMP180;7630;50.306;8.566;2022-12-29T19:14:40;97229.00;;;10.20
15062;BMP180;7630;50.306;8.566;2022-12-29T19:18:41;97229.00;;;10.50
15062;BMP180;7630;50.306;8.566;2022-12-29T19:22:44;97230.00;;;9.90
15062;BMP180;7630;50.306;8.566;2022-12-29T19:26:45;97238.00;;;10.50
15062;BMP180;7630;50.306;8.566;2022-12-29T19:30:47;97232.00;;;9.60
15062;BMP180;7630;50.306;8.566;2022-12-29T19:34:50;97232.00;;;10.30
15062;BMP180;7630;50.306;8.566;2022-12-29T19:38:52;97238.00;;;10.20
15062;BMP180;7630;50.306;8.566;2022-12-29T19:42:54;97234.00;;;10.20
15062;BMP180;7630;50.306;8.566;2022-12-29T19:46:56;97241.00;;;9.70
15062;BMP180;7630;50.306;8.566;2022-12-29T19:51:09;97237.00;;;9.50
15062;BMP180;7630;50.306;8.566;2022-12-29T19:55:13;97245.00;;;9.50
15062;BMP180;7630;50.306;8.566;2022-12-29T19:59:15;97224.00;;;10.30
15062;BMP180;7630;50.306;8.566;2022-12-29T20:03:16;97245.00;;;10.20
15062;BMP180;7630;50.306;8.566;2022-12-29T20:07:19;97237.00;;;10.40
15062;BMP180;7630;50.306;8.566;2022-12-29T20:11:21;97240.00;;;10.00
15062;BMP180;7630;50.306;8.566;2022-12-29T20:15:23;97233.00;;;10.40
15062;BMP180;7630;50.306;8.566;2022-12-29T20:19:24;97244.00;;;10.10
15062;BMP180;7630;50.306;8.566;2022-12-29T20:23:26;97253.00;;;11.00
15062;BMP180;7630;50.306;8.566;2022-12-29T20:27:27;97241.00;;;10.60
15062;BMP180;7630;50.306;8.566;2022-12-29T20:31:31;97247.00;;;9.60
15062;BMP180;7630;50.306;8.566;2022-12-29T20:35:32;97257.00;;;9.60
15062;BMP180;7630;50.306;8.566;2022-12-29T20:39:34;97261.00;;;9.80
15062;BMP180;7630;50.306;8.566;2022-12-29T20:43:36;97253.00;;;10.30
15062;BMP180;7630;50.306;8.566;2022-12-29T20:47:37;97240.00;;;9.20
15062;BMP180;7630;50.306;8.566;2022-12-29T20:51:38;97254.00;;;10.10
15062;BMP180;7630;50.306;8.566;2022-12-29T20:55:43;97255.00;;;10.70
15062;BMP180;7630;50.306;8.566;2022-12-29T20:59:45;97253.00;;;10.00
15062;BMP180;7630;50.306;8.566;2022-12-29T21:03:46;97263.00;;;10.70
15062;BMP180;7630;50.306;8.566;2022-12-29T21:07:48;97278.00;;;10.50
15062;BMP180;7630;50.306;8.566;2022-12-29T21:11:50;97292.00;;;10.80
15062;BMP180;7630;50.306;8.566;2022-12-29T21:16:03;97306.00;;;10.00
15062;BMP180;7630;50.306;8.566;2022-12-29T21:20:05;97307.00;;;10.70
15062;BMP180;7630;50.306;8.566;2022-12-29T21:24:07;97310.00;;;11.10
15062;BMP180;7630;50.306;8.566;2022-12-29T21:28:08;97318.00;;;10.60
15062;BMP180;7630;50.306;8.566;2022-12-29T21:32:11;97328.00;;;10.10
15062;BMP180;7630;50.306;8.566;2022-12-29T21:36:13;97333.00;;;11.10
15062;BMP180;7630;50.306;8.566;2022-12-29T21:40:14;97339.00;;;11.50
15062;BMP180;7630;50.306;8.566;2022-12-29T21:44:15;97346.00;;;11.50
15062;BMP180;7630;50.306;8.566;2022-12-29T21:48:35;97351.00;;;11.60
15062;BMP180;7630;50.306;8.566;2022-12-29T21:52:36;97355.00;;;10.70
15062;BMP180;7630;50.306;8.566;2022-12-29T21:56:37;97363.00;;;11.10
15062;BMP180;7630;50.306;8.566;2022-12-29T22:05:36;97346.00;;;10.00
15062;BMP180;7630;50.306;8.566;2022-12-29T22:09:56;97352.00;;;10.70
15062;BMP180;7630;50.306;8.566;2022-12-29T22:14:16;97347.00;;;9.80
15062;BMP180;7630;50.306;8.566;2022-12-29T22:18:17;97363.00;;;10.10
15062;BMP180;7630;50.306;8.566;2022-12-29T22:22:18;97373.00;;;10.00
15062;BMP180;7630;50.306;8.566;2022-12-29T22:26:19;97372.00;;;9.80
15062;BMP180;7630;50.306;8.566;2022-12-29T22:30:21;97372.00;;;9.30
15062;BMP180;7630;50.306;8.566;2022-12-29T22:34:22;97382.00;;;9.60
15062;BMP180;7630;50.306;8.566;2022-12-29T22:38:23;97385.00;;;9.50
15062;BMP180;7630;50.306;8.566;2022-12-29T22:42:24;97377.00;;;9.80
15062;BMP180;7630;50.306;8.566;2022-12-29T22:46:25;97386.00;;;10.10
15062;BMP180;7630;50.306;8.566;2022-12-29T22:50:26;97394.00;;;10.00
15062;BMP180;7630;50.306;8.566;2022-12-29T22:54:28;97396.00;;;10.50
15062;BMP180;7630;50.306;8.566;2022-12-29T22:58:29;97416.00;;;10.50
15062;BMP180;7630;50.306;8.566;2022-12-29T23:02:30;97416.00;;;11.00
15062;BMP180;7630;50.306;8.566;2022-12-29T23:06:32;97418.00;;;11.10
15062;BMP180;7630;50.306;8.566;2022-12-29T23:10:34;97417.00;;;11.80
15062;BMP180;7630;50.306;8.566;2022-12-29T23:14:35;97417.00;;;11.80
15062;BMP180;7630;50.306;8.566;2022-12-29T23:18:36;97428.00;;;11.60
15062;BMP180;7630;50.306;8.566;2022-12-29T23:22:37;97429.00;;;10.90
15062;BMP180;7630;50.306;8.566;2022-12-29T23:26:41;97433.00;;;9.90
15062;BMP180;7630;50.306;8.566;2022-12-29T23:30:43;97430.00;;;10.10
15062;BMP180;7630;50.306;8.566;2022-12-29T23:34:44;97444.00;;;10.20
15062;BMP180;7630;50.306;8.566;2022-12-29T23:38:45;97444.00;;;10.30
15062;BMP180;7630;50.306;8.566;2022-12-29T23:42:46;97454.00;;;9.80
15062;BMP180;7630;50.306;8.566;2022-12-29T23:46:48;97452.00;;;10.10
15062;BMP180;7630;50.306;8.566;2022-12-29T23:50:49;97437.00;;;9.70
15062;BMP180;7630;50.306;8.566;2022-12-29T23:54:50;97430.00;;;10.20
15062;BMP180;7630;50.306;8.566;2022-12-29T23:58:51;97424.00;;;10.00
